Weather at Penneshaw Airport

Public forecast

Using degrees Celsius for public forecast. Weather courtesy of forecast.io.

Closest aviation weather report (METAR) to Penneshaw Airport

Closest report is Adelaide International Airport, 56.1 nm (103.8 km) NNE. Retrieved 2021/01/28 00:30 UTC (18 minutes ago):

YPAD 280030Z 28010KT CAVOK 26/11 Q1011

Closest aviation forecast (TAF) to Penneshaw Airport

Closest forecast is Adelaide International Airport, 56.1 nm (103.8 km) NNE. Retrieved 2021-01-28 00:00 UTC (48 minutes ago):

TAF YPAD 272323Z 2800/2906 08008KT CAVOK FM280200 22014KT CAVOK FM280900 16010KT 9999 -SHRA NSC FM282200 22006KT 9999 NSW FEW015 SCT030 FM290200 24014KT 9999 SCT040